Aérodrome :
LOGIN :

S'inscrire | Disclaimer

   EN    FR    IT 

 










Légende :    VFR   VFR Marginal   IFR   IFR Intensif   IFR Très Intensif
Visi : 
Plafond : 
>= 8 km
>= 3000ft
5 à 8 km
1000 à 3000 ft
1500m à 5 km
500 à 1000 ft
800 à 1500m
200 à 500 ft
< 800m
< 200 ft
Symboles :   Orages  Brouillard  Fortes neiges  Fortes précipitations  Vent > 20 kt
SIGMETs :   Divers  Orages  Givrage  Turbulence  Onde Orograph.  Cendres Volcan.







- Altitude de l'aérodrome : 52 ft
- Code IATA : IOM
- Voir les cartes d'approche


EGNS - Isle of Man

DERNIER METAR :
  • 220750Z 20019KT 9999 FEW008 SCT012 BKN028 09/08 Q1022 TEMPO 6000 -RA BKN006

METARs EXPIRÉS :
  • 220720Z 21019KT 6000 -RA BKN008 OVC022 09/08 Q1022 TEMPO 9999 NSW SCT008 BKN020
  • 220650Z 22019KT 9999 BKN008 OVC026 09/08 Q1023 NOSIG
  • 220620Z 22013KT 9999 BKN007 09/08 Q1023 NOSIG
  • 220550Z 21011KT 9999 BKN008 OVC025 09/08 Q1023 NOSIG
  • 220520Z 19017KT 9999 FEW003 BKN009 OVC025 09/08 Q1023 NOSIG

TAF COR TAF EGNS
Valide du 22 à 07h jusqu'au 22 à 15h UTC


220716Z 2207/2215 21018KT 9999 SCT006 BKN010
PROB30
TEMPO 2207/2212 8000 -RA BKN006
TEMPO 2212/2215 6000 RA BKN006
Pas de NOTAMs connus pour ce terrain.



MET'MAP, la Météo Aéronautique d'un coup d'oeil ! - Copyright ORBIFLY Décembre 2007 - Disclaimer

ORBIFLY MET'MAP TEAM :

Programmation & Développement : Alexandra Zaïnal
Conception & Développement : Baudouin d'Aumeries
Co-Programmation & Développement : Marc-Olivier Méhu
Soutien technique & logistique : Manuel Goepfert

Contact : metmap@orbifly.com




SOURCES & CREDITS :

   NOAA